Time;durP1;ratioP1;P1;durP2;ratioP2;P2;SDS_P1;SDS_P2;PMS_P1;PMS_P2;Temp;Humidity;BMP_temperature;BMP_pressure;BME280_temperature;BME280_humidity;BME280_pressure;Samples;Min_cycle;Max_cycle;Signal;HPM_P1;HPM_P2
2022/04/30 00:00:35;;;;;;;2.13;0.80;;;8.00;99.90;;;;;;20619103;28;20038;-81
2022/04/30 00:10:39;;;;;;;3.13;0.80;;;7.80;99.90;;;;;;20609139;28;20049;-81
2022/04/30 00:20:45;;;;;;;1.25;0.47;;;7.60;99.90;;;;;;20604460;28;20053;-81
2022/04/30 00:30:47;;;;;;;2.65;0.70;;;7.50;99.90;;;;;;20627326;28;20036;-81
2022/04/30 00:40:48;;;;;;;2.47;0.63;;;7.30;99.90;;;;;;20601760;28;20499;-81
2022/04/30 00:50:50;;;;;;;1.60;0.57;;;7.20;99.90;;;;;;20613679;28;20047;-81
2022/04/30 01:00:51;;;;;;;2.42;0.55;;;7.10;99.90;;;;;;20620293;28;20034;-82
2022/04/30 01:10:53;;;;;;;1.70;0.60;;;7.00;99.90;;;;;;20637344;28;20034;-82
2022/04/30 01:20:58;;;;;;;4.07;0.77;;;6.90;99.90;;;;;;20617876;28;20050;-82
2022/04/30 01:30:59;;;;;;;3.13;1.00;;;6.80;99.90;;;;;;20661093;28;20022;-82
2022/04/30 01:41:01;;;;;;;2.88;1.58;;;6.70;99.90;;;;;;20612596;28;20062;-82
2022/04/30 01:51:02;;;;;;;2.35;1.13;;;6.60;99.90;;;;;;20579768;28;20038;-81
2022/04/30 02:01:07;;;;;;;3.22;1.10;;;6.60;99.90;;;;;;20607909;28;20049;-81
2022/04/30 02:11:08;;;;;;;4.05;1.20;;;6.60;99.90;;;;;;20618680;28;20038;-81
2022/04/30 02:21:10;;;;;;;5.05;1.50;;;6.70;99.90;;;;;;20618993;28;20486;-81
2022/04/30 02:31:22;;;;;;;5.30;1.65;;;6.80;99.90;;;;;;20622769;28;20034;-81
2022/04/30 02:41:23;;;;;;;5.25;1.88;;;6.80;99.90;;;;;;20635981;28;20038;-81
2022/04/30 02:51:24;;;;;;;6.22;1.55;;;6.80;99.90;;;;;;20586652;28;20722;-81
2022/04/30 03:01:27;;;;;;;3.88;1.30;;;7.00;99.90;;;;;;20630241;28;20069;-81
2022/04/30 03:11:28;;;;;;;3.15;1.25;;;6.90;99.90;;;;;;20620164;28;20038;-81
2022/04/30 03:21:47;;;;;;;3.08;1.08;;;6.90;99.90;;;;;;20624973;28;20102;-81
2022/04/30 03:31:49;;;;;;;4.60;1.52;;;7.00;99.90;;;;;;20631154;28;20401;-82
2022/04/30 03:41:50;;;;;;;2.88;1.42;;;7.00;99.90;;;;;;20598327;28;20053;-81
2022/04/30 03:51:51;;;;;;;4.28;2.17;;;7.10;99.90;;;;;;20608004;28;20057;-81
2022/04/30 04:01:52;;;;;;;5.32;2.05;;;7.20;99.90;;;;;;20610404;28;20042;-81
2022/04/30 04:11:53;;;;;;;4.80;2.08;;;7.30;99.90;;;;;;20608168;28;20046;-81
2022/04/30 04:21:56;;;;;;;4.10;1.80;;;7.40;99.90;;;;;;20610322;28;20393;-81
2022/04/30 04:31:57;;;;;;;2.97;1.48;;;7.40;99.90;;;;;;20638342;28;20489;-81
2022/04/30 04:41:58;;;;;;;4.63;1.65;;;7.50;99.90;;;;;;20619519;28;20097;-81
2022/04/30 04:52:01;;;;;;;4.03;1.55;;;7.60;99.90;;;;;;20600923;28;20047;-81
2022/04/30 05:02:03;;;;;;;1.92;0.98;;;7.80;99.90;;;;;;20635578;28;20077;-81
2022/04/30 05:12:05;;;;;;;3.47;0.93;;;7.90;99.90;;;;;;20600225;28;20062;-81
2022/04/30 05:22:06;;;;;;;7.32;1.17;;;7.90;99.90;;;;;;20608327;28;20420;-81
2022/04/30 05:32:07;;;;;;;2.17;0.95;;;8.10;99.90;;;;;;20600543;28;20039;-81
2022/04/30 05:42:08;;;;;;;3.97;1.10;;;8.20;99.90;;;;;;20610604;28;20042;-81
2022/04/30 05:52:11;;;;;;;2.55;1.10;;;8.30;99.90;;;;;;20603286;28;20030;-81
2022/04/30 06:02:13;;;;;;;3.63;1.35;;;8.50;99.90;;;;;;20651251;28;20038;-81
2022/04/30 06:12:14;;;;;;;3.47;1.30;;;8.60;99.90;;;;;;20625242;28;20038;-80
2022/04/30 06:22:15;;;;;;;2.97;0.93;;;8.70;99.90;;;;;;20638519;28;20397;-81
2022/04/30 06:32:16;;;;;;;2.08;1.00;;;8.90;99.90;;;;;;20626429;28;20038;-81
2022/04/30 06:42:18;;;;;;;2.85;1.30;;;9.10;99.90;;;;;;20630376;28;20046;-82
2022/04/30 06:52:22;;;;;;;2.58;1.50;;;9.10;99.90;;;;;;20624269;28;20045;-81
2022/04/30 07:02:24;;;;;;;2.35;1.15;;;9.00;99.90;;;;;;20582050;28;20048;-81
2022/04/30 07:12:25;;;;;;;4.50;1.52;;;9.20;99.90;;;;;;20608429;28;20030;-81
2022/04/30 07:22:26;;;;;;;6.80;2.05;;;9.50;99.90;;;;;;20617298;28;20033;-81
2022/04/30 07:32:27;;;;;;;2.97;1.33;;;9.80;99.90;;;;;;20618111;28;20039;-81
2022/04/30 07:42:28;;;;;;;2.08;0.93;;;10.00;99.90;;;;;;20601127;28;20050;-81
2022/04/30 07:52:31;;;;;;;3.15;1.30;;;10.00;99.90;;;;;;20631489;28;20053;-83
2022/04/30 08:02:32;;;;;;;1.98;1.02;;;10.40;99.90;;;;;;20596074;28;20053;-81
2022/04/30 08:12:33;;;;;;;1.67;1.00;;;10.90;99.90;;;;;;20620245;28;20248;-82
2022/04/30 08:22:34;;;;;;;2.75;0.93;;;11.00;99.90;;;;;;20617602;28;20382;-82
2022/04/30 08:32:36;;;;;;;3.58;0.93;;;11.20;99.90;;;;;;20615556;28;20042;-82
2022/04/30 08:42:37;;;;;;;3.03;1.23;;;11.30;99.90;;;;;;20615349;28;20077;-82
2022/04/30 08:52:38;;;;;;;2.22;0.80;;;11.80;99.90;;;;;;20624245;28;20042;-82
2022/04/30 09:02:55;;;;;;;2.60;1.00;;;11.60;99.90;;;;;;20628955;28;20039;-83
2022/04/30 09:13:23;;;;;;;2.67;0.40;;;11.30;99.90;;;;;;20607719;28;20042;-82
2022/04/30 09:23:26;;;;;;;2.23;1.10;;;11.00;99.90;;;;;;20604003;28;20154;-82
2022/04/30 09:33:27;;;;;;;1.63;0.70;;;11.00;99.90;;;;;;20629987;28;20053;-82
2022/04/30 09:43:34;;;;;;;1.52;0.82;;;10.50;99.90;;;;;;20620202;28;20069;-82
2022/04/30 10:03:58;;;;;;;2.63;1.00;;;10.40;99.90;;;;;;20656176;28;20038;-81
2022/04/30 10:14:05;;;;;;;2.55;0.73;;;10.40;99.90;;;;;;20643013;28;20042;-81
2022/04/30 10:24:07;;;;;;;2.73;0.87;;;10.50;99.90;;;;;;20634860;28;22017;-81
2022/04/30 10:34:08;;;;;;;2.08;0.80;;;10.80;99.90;;;;;;20560525;28;2105460;-82
2022/04/30 10:44:12;;;;;;;3.30;0.93;;;11.00;99.90;;;;;;20601690;28;20593;-81
2022/04/30 10:54:21;;;;;;;1.25;0.70;;;11.40;99.90;;;;;;20601572;28;20525;-83
2022/04/30 11:04:23;;;;;;;0.90;0.40;;;11.50;99.90;;;;;;20648208;28;20042;-81
2022/04/30 11:14:24;;;;;;;1.23;0.45;;;11.60;99.90;;;;;;20651999;28;20042;-81
2022/04/30 11:24:29;;;;;;;1.83;0.70;;;11.50;99.90;;;;;;20641212;28;20038;-81
2022/04/30 11:34:30;;;;;;;1.20;0.60;;;11.20;99.90;;;;;;20657808;28;20497;-81
2022/04/30 11:44:31;;;;;;;1.13;0.52;;;11.10;99.90;;;;;;20637102;28;20526;-81
2022/04/30 11:54:39;;;;;;;1.70;0.60;;;11.00;99.90;;;;;;20635359;28;20388;-81
2022/04/30 12:04:43;;;;;;;;;;;11.00;99.90;;;;;;20634996;28;20057;-81
2022/04/30 12:14:55;;;;;;;1.70;0.50;;;11.20;99.90;;;;;;20619111;28;20004;-81
2022/04/30 12:24:58;;;;;;;3.05;0.68;;;11.40;99.90;;;;;;20649320;28;20764;-81
2022/04/30 12:35:01;;;;;;;0.85;0.25;;;11.70;99.90;;;;;;20648382;28;20053;-81
2022/04/30 12:45:02;;;;;;;1.55;0.60;;;11.80;99.90;;;;;;20614813;28;20057;-81
2022/04/30 12:55:03;;;;;;;0.95;0.50;;;11.80;99.90;;;;;;20608849;28;20586;-81
2022/04/30 13:05:07;;;;;;;1.17;0.30;;;12.10;99.90;;;;;;20633501;28;20050;-81
2022/04/30 13:15:08;;;;;;;1.17;0.73;;;11.90;99.90;;;;;;20651385;28;20065;-82
2022/04/30 13:25:11;;;;;;;0.65;0.35;;;11.80;99.90;;;;;;20640031;28;20101;-81
2022/04/30 13:35:13;;;;;;;1.27;0.75;;;11.50;99.90;;;;;;20659964;28;20046;-81
2022/04/30 13:45:15;;;;;;;0.57;0.35;;;11.30;99.90;;;;;;20649819;28;20047;-81
2022/04/30 13:55:16;;;;;;;1.63;0.52;;;11.40;99.90;;;;;;20644126;28;20043;-81
2022/04/30 14:05:18;;;;;;;0.73;0.40;;;11.40;99.90;;;;;;20691272;28;20498;-81
2022/04/30 14:15:19;;;;;;;1.25;0.43;;;11.30;99.90;;;;;;20664149;28;20042;-81
2022/04/30 14:25:22;;;;;;;2.72;1.08;;;11.10;99.90;;;;;;20648026;28;20035;-81
2022/04/30 14:35:23;;;;;;;7.97;2.30;;;11.10;99.90;;;;;;20650502;28;20038;-81
2022/04/30 14:45:24;;;;;;;2.45;0.70;;;11.10;99.90;;;;;;20636482;28;20038;-81
2022/04/30 14:55:30;;;;;;;3.22;0.95;;;11.10;99.90;;;;;;20634357;28;20046;-81
2022/04/30 15:05:31;;;;;;;1.95;0.82;;;11.10;99.90;;;;;;20658639;28;20049;-81
2022/04/30 15:15:33;;;;;;;2.42;0.80;;;10.90;99.90;;;;;;20636097;28;20053;-81
2022/04/30 15:25:34;;;;;;;1.13;0.50;;;10.80;99.90;;;;;;20659825;28;20034;-81
2022/04/30 15:35:37;;;;;;;2.30;0.85;;;10.80;99.90;;;;;;20625735;28;20041;-81
2022/04/30 15:45:39;;;;;;;8.30;0.95;;;10.80;99.90;;;;;;20655965;28;20509;-81
2022/04/30 15:55:40;;;;;;;2.33;0.55;;;10.80;99.90;;;;;;20686478;28;20050;-81
2022/04/30 16:05:42;;;;;;;1.33;0.70;;;10.70;99.90;;;;;;20685464;28;20114;-80
2022/04/30 16:15:43;;;;;;;2.22;0.95;;;10.70;99.90;;;;;;20668949;28;20034;-81
2022/04/30 16:25:45;;;;;;;2.70;0.90;;;10.70;99.90;;;;;;20695462;28;20038;-81
2022/04/30 16:35:47;;;;;;;2.35;1.00;;;10.90;99.90;;;;;;20672664;28;20068;-82
2022/04/30 16:45:48;;;;;;;3.35;0.82;;;11.10;99.90;;;;;;20639937;28;20073;-81
2022/04/30 17:06:11;;;;;;;3.55;1.25;;;11.10;99.90;;;;;;20642134;28;20053;-81
2022/04/30 17:16:12;;;;;;;3.90;0.90;;;11.00;99.90;;;;;;20688658;28;20038;-81
2022/04/30 17:26:14;;;;;;;2.75;1.10;;;11.00;99.90;;;;;;20668496;28;20050;-81
2022/04/30 17:46:37;;;;;;;2.80;0.90;;;10.80;99.90;;;;;;20682346;28;20104;-81
2022/04/30 17:56:40;;;;;;;1.65;0.70;;;10.80;99.90;;;;;;20685453;28;20072;-81
2022/04/30 18:06:42;;;;;;;2.28;1.27;;;10.70;99.90;;;;;;20679280;28;20034;-81
2022/04/30 18:16:43;;;;;;;2.08;0.73;;;10.70;99.90;;;;;;20686344;28;20027;-81
2022/04/30 18:26:45;;;;;;;2.10;0.80;;;10.50;99.90;;;;;;20672553;28;20073;-80
2022/04/30 18:36:46;;;;;;;1.73;0.90;;;10.40;99.90;;;;;;20699972;28;20100;-81
2022/04/30 18:46:49;;;;;;;2.42;1.13;;;10.40;99.90;;;;;;20682586;28;20061;-82
2022/04/30 19:07:11;;;;;;;3.05;1.20;;;10.30;99.90;;;;;;20679043;28;20046;-81
2022/04/30 19:17:13;;;;;;;3.83;1.48;;;10.20;99.90;;;;;;20662697;28;20053;-81
2022/04/30 19:27:14;;;;;;;3.38;1.85;;;10.20;99.90;;;;;;20676514;28;20062;-81
2022/04/30 19:37:16;;;;;;;2.90;1.10;;;10.10;99.90;;;;;;20611029;28;20038;-81
2022/04/30 19:47:20;;;;;;;3.47;1.67;;;10.10;99.90;;;;;;20645341;28;20046;-81
2022/04/30 19:57:22;;;;;;;4.47;1.77;;;10.10;99.90;;;;;;20655929;28;20041;-81
2022/04/30 20:07:23;;;;;;;2.95;1.20;;;10.00;99.90;;;;;;20658999;28;20030;-81
2022/04/30 20:17:24;;;;;;;3.95;1.30;;;10.00;99.90;;;;;;20652223;28;20491;-81
2022/04/30 20:27:26;;;;;;;2.67;1.08;;;9.90;99.90;;;;;;20673377;28;20061;-80
2022/04/30 20:37:28;;;;;;;3.95;1.52;;;9.90;99.90;;;;;;20644349;28;20066;-80
2022/04/30 20:47:29;;;;;;;2.42;1.48;;;9.90;99.90;;;;;;20649687;28;20042;-80
2022/04/30 20:57:30;;;;;;;4.70;1.70;;;9.90;99.90;;;;;;20676257;28;20085;-81
2022/04/30 21:07:31;;;;;;;4.53;1.50;;;9.80;99.90;;;;;;20642585;28;20069;-80
2022/04/30 21:17:32;;;;;;;3.88;1.50;;;9.80;99.90;;;;;;20674773;28;20133;-80
2022/04/30 21:27:35;;;;;;;4.47;2.08;;;9.70;99.90;;;;;;20664710;28;20038;-80
2022/04/30 21:37:36;;;;;;;5.78;2.03;;;9.70;99.90;;;;;;20653427;28;20126;-81
2022/04/30 21:47:38;;;;;;;4.22;1.92;;;9.70;99.90;;;;;;20647623;28;20459;-80
2022/04/30 22:07:58;;;;;;;7.18;2.33;;;9.40;99.90;;;;;;20662870;28;20126;-80
2022/04/30 22:17:59;;;;;;;5.28;2.33;;;9.30;99.90;;;;;;20658443;28;20136;-80
2022/04/30 22:28:00;;;;;;;4.55;1.90;;;9.10;99.90;;;;;;20654844;28;20052;-81
2022/04/30 22:38:01;;;;;;;5.78;1.75;;;8.90;99.90;;;;;;20642109;28;20070;-80
2022/04/30 22:48:03;;;;;;;3.33;1.83;;;8.90;99.90;;;;;;20667783;28;20144;-81
2022/04/30 22:58:04;;;;;;;6.20;2.45;;;8.70;99.90;;;;;;20661538;28;20101;-80
2022/04/30 23:08:05;;;;;;;5.97;2.47;;;8.50;99.90;;;;;;20671054;28;22185;-80
2022/04/30 23:18:06;;;;;;;5.85;1.77;;;8.20;99.90;;;;;;20650936;28;20529;-81
2022/04/30 23:28:08;;;;;;;3.72;1.80;;;7.90;99.90;;;;;;20671643;28;20098;-81
2022/04/30 23:38:09;;;;;;;5.55;2.10;;;7.80;99.90;;;;;;20642732;28;20157;-80
2022/04/30 23:48:10;;;;;;;3.78;2.00;;;7.70;99.90;;;;;;20641439;28;20057;-80
2022/04/30 23:58:11;;;;;;;5.43;2.05;;;7.40;99.90;;;;;;20655010;28;20045;-80
